sensor_id;sensor_type;location;lat;lon;timestamp;P1;durP1;ratioP1;P2;durP2;ratioP2
6537;SDS011;3302;52.508;13.454;2022-12-13T00:01:13;10.00;;;7.17;;
6537;SDS011;3302;52.508;13.454;2022-12-13T00:03:40;9.63;;;6.77;;
6537;SDS011;3302;52.508;13.454;2022-12-13T00:06:06;9.27;;;6.70;;
6537;SDS011;3302;52.508;13.454;2022-12-13T00:08:33;9.03;;;6.77;;
6537;SDS011;3302;52.508;13.454;2022-12-13T00:11:00;8.80;;;6.53;;
6537;SDS011;3302;52.508;13.454;2022-12-13T00:13:27;9.57;;;6.90;;
6537;SDS011;3302;52.508;13.454;2022-12-13T00:16:00;10.93;;;7.97;;
6537;SDS011;3302;52.508;13.454;2022-12-13T00:18:28;9.63;;;6.80;;
6537;SDS011;3302;52.508;13.454;2022-12-13T00:20:54;11.97;;;7.80;;
6537;SDS011;3302;52.508;13.454;2022-12-13T00:23:20;10.13;;;6.87;;
6537;SDS011;3302;52.508;13.454;2022-12-13T00:25:46;11.27;;;7.33;;
6537;SDS011;3302;52.508;13.454;2022-12-13T00:28:13;11.90;;;8.60;;
6537;SDS011;3302;52.508;13.454;2022-12-13T00:30:39;10.97;;;7.60;;
6537;SDS011;3302;52.508;13.454;2022-12-13T00:33:05;11.93;;;8.70;;
6537;SDS011;3302;52.508;13.454;2022-12-13T00:35:32;10.47;;;8.27;;
6537;SDS011;3302;52.508;13.454;2022-12-13T00:37:58;13.00;;;8.83;;
6537;SDS011;3302;52.508;13.454;2022-12-13T00:40:26;12.30;;;8.80;;
6537;SDS011;3302;52.508;13.454;2022-12-13T00:42:53;11.83;;;8.10;;
6537;SDS011;3302;52.508;13.454;2022-12-13T00:45:19;11.43;;;8.07;;
6537;SDS011;3302;52.508;13.454;2022-12-13T00:47:44;12.17;;;8.60;;
6537;SDS011;3302;52.508;13.454;2022-12-13T00:50:10;12.60;;;8.53;;
6537;SDS011;3302;52.508;13.454;2022-12-13T00:52:36;11.50;;;8.30;;
6537;SDS011;3302;52.508;13.454;2022-12-13T00:55:02;11.40;;;7.60;;
6537;SDS011;3302;52.508;13.454;2022-12-13T00:57:28;12.97;;;8.37;;
6537;SDS011;3302;52.508;13.454;2022-12-13T00:59:54;11.03;;;7.70;;
6537;SDS011;3302;52.508;13.454;2022-12-13T01:02:20;11.50;;;7.83;;
6537;SDS011;3302;52.508;13.454;2022-12-13T01:04:48;10.00;;;7.07;;
6537;SDS011;3302;52.508;13.454;2022-12-13T01:07:14;9.80;;;7.30;;
6537;SDS011;3302;52.508;13.454;2022-12-13T01:09:39;8.33;;;6.80;;
6537;SDS011;3302;52.508;13.454;2022-12-13T01:12:06;11.03;;;8.17;;
6537;SDS011;3302;52.508;13.454;2022-12-13T01:14:36;8.63;;;6.30;;
6537;SDS011;3302;52.508;13.454;2022-12-13T01:17:04;9.93;;;7.00;;
6537;SDS011;3302;52.508;13.454;2022-12-13T01:19:30;9.77;;;7.23;;
6537;SDS011;3302;52.508;13.454;2022-12-13T01:21:58;10.30;;;7.37;;
6537;SDS011;3302;52.508;13.454;2022-12-13T01:24:25;10.40;;;7.27;;
6537;SDS011;3302;52.508;13.454;2022-12-13T01:26:52;10.93;;;7.80;;
6537;SDS011;3302;52.508;13.454;2022-12-13T01:29:18;10.20;;;7.10;;
6537;SDS011;3302;52.508;13.454;2022-12-13T01:31:45;10.23;;;7.67;;
6537;SDS011;3302;52.508;13.454;2022-12-13T01:34:11;11.13;;;7.53;;
6537;SDS011;3302;52.508;13.454;2022-12-13T01:36:40;9.27;;;6.90;;
6537;SDS011;3302;52.508;13.454;2022-12-13T01:39:08;9.03;;;6.50;;
6537;SDS011;3302;52.508;13.454;2022-12-13T01:41:35;9.07;;;6.33;;
6537;SDS011;3302;52.508;13.454;2022-12-13T01:44:02;8.77;;;6.33;;
6537;SDS011;3302;52.508;13.454;2022-12-13T01:46:30;9.47;;;6.00;;
6537;SDS011;3302;52.508;13.454;2022-12-13T01:51:38;9.03;;;6.60;;
6537;SDS011;3302;52.508;13.454;2022-12-13T01:54:16;10.57;;;7.17;;
6537;SDS011;3302;52.508;13.454;2022-12-13T01:56:52;10.40;;;7.57;;
6537;SDS011;3302;52.508;13.454;2022-12-13T01:59:19;10.50;;;7.83;;
6537;SDS011;3302;52.508;13.454;2022-12-13T02:01:46;10.10;;;6.93;;
6537;SDS011;3302;52.508;13.454;2022-12-13T02:04:18;9.73;;;6.73;;
6537;SDS011;3302;52.508;13.454;2022-12-13T02:06:51;11.53;;;8.10;;
6537;SDS011;3302;52.508;13.454;2022-12-13T02:09:19;10.33;;;6.97;;
6537;SDS011;3302;52.508;13.454;2022-12-13T02:11:47;10.63;;;6.87;;
6537;SDS011;3302;52.508;13.454;2022-12-13T02:14:13;12.03;;;8.27;;
6537;SDS011;3302;52.508;13.454;2022-12-13T02:22:16;11.47;;;7.77;;
6537;SDS011;3302;52.508;13.454;2022-12-13T02:30:53;12.07;;;8.10;;
6537;SDS011;3302;52.508;13.454;2022-12-13T02:33:33;10.57;;;7.63;;
6537;SDS011;3302;52.508;13.454;2022-12-13T02:39:02;10.10;;;7.10;;
6537;SDS011;3302;52.508;13.454;2022-12-13T02:41:38;10.93;;;7.43;;
6537;SDS011;3302;52.508;13.454;2022-12-13T02:44:22;10.77;;;7.40;;
6537;SDS011;3302;52.508;13.454;2022-12-13T02:47:16;11.97;;;7.73;;
6537;SDS011;3302;52.508;13.454;2022-12-13T02:49:47;12.50;;;8.27;;
6537;SDS011;3302;52.508;13.454;2022-12-13T02:52:19;12.73;;;8.97;;
6537;SDS011;3302;52.508;13.454;2022-12-13T02:54:48;14.47;;;8.63;;
6537;SDS011;3302;52.508;13.454;2022-12-13T02:57:33;12.07;;;8.57;;
6537;SDS011;3302;52.508;13.454;2022-12-13T03:00:03;12.30;;;8.80;;
6537;SDS011;3302;52.508;13.454;2022-12-13T03:02:41;13.60;;;9.23;;
6537;SDS011;3302;52.508;13.454;2022-12-13T03:11:21;13.13;;;8.57;;
6537;SDS011;3302;52.508;13.454;2022-12-13T03:13:51;13.70;;;9.13;;
6537;SDS011;3302;52.508;13.454;2022-12-13T03:19:04;12.43;;;9.07;;
6537;SDS011;3302;52.508;13.454;2022-12-13T03:21:48;12.97;;;9.40;;
6537;SDS011;3302;52.508;13.454;2022-12-13T03:24:18;12.87;;;9.17;;
6537;SDS011;3302;52.508;13.454;2022-12-13T03:26:45;13.23;;;8.83;;
6537;SDS011;3302;52.508;13.454;2022-12-13T03:29:12;13.53;;;9.10;;
6537;SDS011;3302;52.508;13.454;2022-12-13T03:31:38;12.93;;;8.13;;
6537;SDS011;3302;52.508;13.454;2022-12-13T03:34:04;13.03;;;9.07;;
6537;SDS011;3302;52.508;13.454;2022-12-13T03:36:30;12.43;;;8.27;;
6537;SDS011;3302;52.508;13.454;2022-12-13T03:38:56;14.37;;;8.87;;
6537;SDS011;3302;52.508;13.454;2022-12-13T03:41:23;11.43;;;8.23;;
6537;SDS011;3302;52.508;13.454;2022-12-13T03:43:58;11.83;;;8.77;;
6537;SDS011;3302;52.508;13.454;2022-12-13T03:46:25;11.50;;;8.27;;
6537;SDS011;3302;52.508;13.454;2022-12-13T03:48:50;12.67;;;8.80;;
6537;SDS011;3302;52.508;13.454;2022-12-13T03:51:16;12.53;;;8.40;;
6537;SDS011;3302;52.508;13.454;2022-12-13T03:53:42;11.73;;;8.40;;
6537;SDS011;3302;52.508;13.454;2022-12-13T03:56:08;12.37;;;8.50;;
6537;SDS011;3302;52.508;13.454;2022-12-13T03:58:34;12.70;;;8.63;;
6537;SDS011;3302;52.508;13.454;2022-12-13T04:01:00;11.57;;;8.67;;
6537;SDS011;3302;52.508;13.454;2022-12-13T04:03:26;11.77;;;8.53;;
6537;SDS011;3302;52.508;13.454;2022-12-13T04:05:52;13.10;;;7.97;;
6537;SDS011;3302;52.508;13.454;2022-12-13T04:08:18;11.87;;;8.23;;
6537;SDS011;3302;52.508;13.454;2022-12-13T04:10:43;12.17;;;7.50;;
6537;SDS011;3302;52.508;13.454;2022-12-13T04:13:09;12.27;;;8.30;;
6537;SDS011;3302;52.508;13.454;2022-12-13T04:15:54;11.93;;;8.10;;
6537;SDS011;3302;52.508;13.454;2022-12-13T04:18:20;13.37;;;8.80;;
6537;SDS011;3302;52.508;13.454;2022-12-13T04:20:45;13.17;;;9.23;;
6537;SDS011;3302;52.508;13.454;2022-12-13T04:23:12;14.73;;;8.57;;
6537;SDS011;3302;52.508;13.454;2022-12-13T04:25:39;12.47;;;8.37;;
6537;SDS011;3302;52.508;13.454;2022-12-13T04:28:05;13.27;;;9.30;;
6537;SDS011;3302;52.508;13.454;2022-12-13T04:30:31;12.97;;;8.60;;
6537;SDS011;3302;52.508;13.454;2022-12-13T04:32:58;11.87;;;8.47;;
6537;SDS011;3302;52.508;13.454;2022-12-13T04:35:24;12.07;;;8.27;;
6537;SDS011;3302;52.508;13.454;2022-12-13T04:37:50;12.37;;;7.97;;
6537;SDS011;3302;52.508;13.454;2022-12-13T04:40:16;11.97;;;8.43;;
6537;SDS011;3302;52.508;13.454;2022-12-13T04:42:42;11.53;;;7.60;;
6537;SDS011;3302;52.508;13.454;2022-12-13T04:45:08;11.73;;;8.30;;
6537;SDS011;3302;52.508;13.454;2022-12-13T04:47:42;14.47;;;9.00;;
6537;SDS011;3302;52.508;13.454;2022-12-13T04:50:08;11.50;;;8.20;;
6537;SDS011;3302;52.508;13.454;2022-12-13T04:52:34;11.83;;;8.13;;
6537;SDS011;3302;52.508;13.454;2022-12-13T04:55:00;12.10;;;8.57;;
6537;SDS011;3302;52.508;13.454;2022-12-13T04:57:26;11.83;;;8.67;;
6537;SDS011;3302;52.508;13.454;2022-12-13T04:59:52;12.60;;;7.83;;
6537;SDS011;3302;52.508;13.454;2022-12-13T05:02:18;12.20;;;8.47;;
6537;SDS011;3302;52.508;13.454;2022-12-13T05:04:44;11.63;;;8.47;;
6537;SDS011;3302;52.508;13.454;2022-12-13T05:07:10;11.60;;;8.37;;
6537;SDS011;3302;52.508;13.454;2022-12-13T05:09:36;11.83;;;8.30;;
6537;SDS011;3302;52.508;13.454;2022-12-13T05:12:02;11.70;;;8.30;;
6537;SDS011;3302;52.508;13.454;2022-12-13T05:14:29;12.37;;;9.00;;
6537;SDS011;3302;52.508;13.454;2022-12-13T05:16:55;13.97;;;9.33;;
6537;SDS011;3302;52.508;13.454;2022-12-13T05:19:21;12.10;;;8.30;;
6537;SDS011;3302;52.508;13.454;2022-12-13T05:21:47;13.57;;;8.90;;
6537;SDS011;3302;52.508;13.454;2022-12-13T05:24:13;11.90;;;8.67;;
6537;SDS011;3302;52.508;13.454;2022-12-13T05:26:39;10.93;;;7.70;;
6537;SDS011;3302;52.508;13.454;2022-12-13T05:29:05;11.03;;;7.50;;
6537;SDS011;3302;52.508;13.454;2022-12-13T05:31:30;11.07;;;7.67;;
6537;SDS011;3302;52.508;13.454;2022-12-13T05:33:56;13.47;;;8.57;;
6537;SDS011;3302;52.508;13.454;2022-12-13T05:36:22;11.50;;;7.80;;
6537;SDS011;3302;52.508;13.454;2022-12-13T05:38:50;13.23;;;7.87;;
6537;SDS011;3302;52.508;13.454;2022-12-13T05:41:17;12.43;;;7.90;;
6537;SDS011;3302;52.508;13.454;2022-12-13T05:43:46;11.20;;;7.60;;
6537;SDS011;3302;52.508;13.454;2022-12-13T05:46:12;11.67;;;7.37;;
6537;SDS011;3302;52.508;13.454;2022-12-13T05:48:38;11.23;;;7.87;;
6537;SDS011;3302;52.508;13.454;2022-12-13T05:51:04;12.90;;;8.47;;
6537;SDS011;3302;52.508;13.454;2022-12-13T05:53:30;11.43;;;7.53;;
6537;SDS011;3302;52.508;13.454;2022-12-13T05:55:59;12.17;;;7.73;;
6537;SDS011;3302;52.508;13.454;2022-12-13T05:58:26;14.80;;;7.97;;
6537;SDS011;3302;52.508;13.454;2022-12-13T06:00:52;11.27;;;7.40;;
6537;SDS011;3302;52.508;13.454;2022-12-13T06:03:17;10.60;;;7.23;;
6537;SDS011;3302;52.508;13.454;2022-12-13T06:05:43;9.73;;;7.10;;
6537;SDS011;3302;52.508;13.454;2022-12-13T06:08:09;12.30;;;7.90;;
6537;SDS011;3302;52.508;13.454;2022-12-13T06:10:35;10.87;;;7.53;;
6537;SDS011;3302;52.508;13.454;2022-12-13T06:13:01;11.70;;;7.13;;
6537;SDS011;3302;52.508;13.454;2022-12-13T06:15:28;11.23;;;7.87;;
6537;SDS011;3302;52.508;13.454;2022-12-13T06:17:54;11.17;;;7.53;;
6537;SDS011;3302;52.508;13.454;2022-12-13T06:20:20;9.60;;;7.23;;
6537;SDS011;3302;52.508;13.454;2022-12-13T06:22:45;11.33;;;7.67;;
6537;SDS011;3302;52.508;13.454;2022-12-13T06:25:11;10.57;;;7.80;;
6537;SDS011;3302;52.508;13.454;2022-12-13T06:27:39;9.40;;;7.23;;
6537;SDS011;3302;52.508;13.454;2022-12-13T06:30:05;12.20;;;8.07;;
6537;SDS011;3302;52.508;13.454;2022-12-13T06:32:31;11.23;;;7.30;;
6537;SDS011;3302;52.508;13.454;2022-12-13T06:34:57;13.37;;;8.67;;
6537;SDS011;3302;52.508;13.454;2022-12-13T06:37:22;13.17;;;8.10;;
6537;SDS011;3302;52.508;13.454;2022-12-13T06:39:48;10.80;;;7.73;;
6537;SDS011;3302;52.508;13.454;2022-12-13T06:42:15;10.50;;;7.10;;
6537;SDS011;3302;52.508;13.454;2022-12-13T06:44:42;11.10;;;8.40;;
6537;SDS011;3302;52.508;13.454;2022-12-13T06:47:08;10.70;;;7.90;;
6537;SDS011;3302;52.508;13.454;2022-12-13T06:49:34;12.43;;;8.00;;
6537;SDS011;3302;52.508;13.454;2022-12-13T06:52:01;11.50;;;7.87;;
6537;SDS011;3302;52.508;13.454;2022-12-13T06:54:27;15.70;;;8.67;;
6537;SDS011;3302;52.508;13.454;2022-12-13T06:56:53;12.77;;;8.33;;
6537;SDS011;3302;52.508;13.454;2022-12-13T06:59:18;13.63;;;9.07;;
6537;SDS011;3302;52.508;13.454;2022-12-13T07:01:45;13.17;;;9.07;;
6537;SDS011;3302;52.508;13.454;2022-12-13T07:04:10;14.10;;;9.10;;
6537;SDS011;3302;52.508;13.454;2022-12-13T07:06:36;12.13;;;8.07;;
6537;SDS011;3302;52.508;13.454;2022-12-13T07:09:03;12.90;;;8.73;;
6537;SDS011;3302;52.508;13.454;2022-12-13T07:11:29;12.70;;;8.90;;
6537;SDS011;3302;52.508;13.454;2022-12-13T07:13:57;12.33;;;8.83;;
6537;SDS011;3302;52.508;13.454;2022-12-13T07:16:24;13.47;;;8.83;;
6537;SDS011;3302;52.508;13.454;2022-12-13T07:18:53;14.87;;;9.33;;
6537;SDS011;3302;52.508;13.454;2022-12-13T07:21:23;15.03;;;9.57;;
6537;SDS011;3302;52.508;13.454;2022-12-13T07:23:50;15.63;;;8.77;;
6537;SDS011;3302;52.508;13.454;2022-12-13T07:26:16;13.03;;;8.40;;
6537;SDS011;3302;52.508;13.454;2022-12-13T07:28:42;13.67;;;9.47;;
6537;SDS011;3302;52.508;13.454;2022-12-13T07:31:09;15.30;;;9.93;;
6537;SDS011;3302;52.508;13.454;2022-12-13T07:33:35;16.20;;;9.40;;
6537;SDS011;3302;52.508;13.454;2022-12-13T07:36:02;15.53;;;9.50;;
6537;SDS011;3302;52.508;13.454;2022-12-13T07:38:38;13.80;;;9.20;;
6537;SDS011;3302;52.508;13.454;2022-12-13T07:41:05;17.03;;;9.87;;
6537;SDS011;3302;52.508;13.454;2022-12-13T07:43:31;15.33;;;10.33;;
6537;SDS011;3302;52.508;13.454;2022-12-13T07:45:58;14.83;;;9.37;;
6537;SDS011;3302;52.508;13.454;2022-12-13T07:48:25;16.30;;;9.90;;
6537;SDS011;3302;52.508;13.454;2022-12-13T07:50:52;15.37;;;10.33;;
6537;SDS011;3302;52.508;13.454;2022-12-13T07:53:19;14.23;;;10.13;;
6537;SDS011;3302;52.508;13.454;2022-12-13T07:55:45;16.03;;;10.67;;
6537;SDS011;3302;52.508;13.454;2022-12-13T07:58:12;19.17;;;10.90;;
6537;SDS011;3302;52.508;13.454;2022-12-13T08:00:44;20.97;;;11.70;;
6537;SDS011;3302;52.508;13.454;2022-12-13T08:03:10;16.53;;;10.70;;
6537;SDS011;3302;52.508;13.454;2022-12-13T08:05:37;20.33;;;11.73;;
6537;SDS011;3302;52.508;13.454;2022-12-13T08:08:03;15.90;;;11.30;;
6537;SDS011;3302;52.508;13.454;2022-12-13T08:10:31;16.77;;;10.83;;
6537;SDS011;3302;52.508;13.454;2022-12-13T08:12:57;15.93;;;10.80;;
6537;SDS011;3302;52.508;13.454;2022-12-13T08:15:26;18.63;;;11.30;;
6537;SDS011;3302;52.508;13.454;2022-12-13T08:17:54;18.27;;;11.67;;
6537;SDS011;3302;52.508;13.454;2022-12-13T08:20:21;17.17;;;10.90;;
6537;SDS011;3302;52.508;13.454;2022-12-13T08:22:56;16.47;;;11.10;;
6537;SDS011;3302;52.508;13.454;2022-12-13T08:25:23;14.00;;;10.50;;
6537;SDS011;3302;52.508;13.454;2022-12-13T08:27:50;18.20;;;12.03;;
6537;SDS011;3302;52.508;13.454;2022-12-13T08:30:16;18.13;;;11.77;;
6537;SDS011;3302;52.508;13.454;2022-12-13T08:32:42;24.87;;;14.50;;
6537;SDS011;3302;52.508;13.454;2022-12-13T08:35:08;24.53;;;19.60;;
6537;SDS011;3302;52.508;13.454;2022-12-13T08:37:34;17.17;;;12.03;;
6537;SDS011;3302;52.508;13.454;2022-12-13T08:39:59;16.73;;;11.87;;
6537;SDS011;3302;52.508;13.454;2022-12-13T08:42:25;20.23;;;14.77;;
6537;SDS011;3302;52.508;13.454;2022-12-13T08:44:51;17.30;;;11.57;;
6537;SDS011;3302;52.508;13.454;2022-12-13T08:47:18;17.90;;;10.87;;
6537;SDS011;3302;52.508;13.454;2022-12-13T08:49:46;14.77;;;10.57;;
6537;SDS011;3302;52.508;13.454;2022-12-13T08:52:12;19.87;;;11.50;;
6537;SDS011;3302;52.508;13.454;2022-12-13T08:54:37;16.67;;;10.70;;
6537;SDS011;3302;52.508;13.454;2022-12-13T08:57:03;17.47;;;11.47;;
6537;SDS011;3302;52.508;13.454;2022-12-13T08:59:29;16.70;;;10.73;;
6537;SDS011;3302;52.508;13.454;2022-12-13T09:01:55;18.07;;;11.33;;
6537;SDS011;3302;52.508;13.454;2022-12-13T09:04:21;16.27;;;10.93;;
6537;SDS011;3302;52.508;13.454;2022-12-13T09:06:47;17.37;;;11.07;;
6537;SDS011;3302;52.508;13.454;2022-12-13T09:09:13;17.20;;;11.63;;
6537;SDS011;3302;52.508;13.454;2022-12-13T09:11:39;15.13;;;10.93;;
6537;SDS011;3302;52.508;13.454;2022-12-13T09:14:07;17.53;;;11.03;;
6537;SDS011;3302;52.508;13.454;2022-12-13T09:16:33;15.57;;;11.17;;
6537;SDS011;3302;52.508;13.454;2022-12-13T09:19:03;16.97;;;11.03;;
6537;SDS011;3302;52.508;13.454;2022-12-13T09:21:29;19.83;;;11.80;;
6537;SDS011;3302;52.508;13.454;2022-12-13T09:23:56;15.80;;;10.50;;
6537;SDS011;3302;52.508;13.454;2022-12-13T09:26:22;18.03;;;11.23;;
6537;SDS011;3302;52.508;13.454;2022-12-13T09:28:48;17.07;;;11.63;;
6537;SDS011;3302;52.508;13.454;2022-12-13T09:31:15;17.57;;;10.93;;
6537;SDS011;3302;52.508;13.454;2022-12-13T09:33:43;15.07;;;10.40;;
6537;SDS011;3302;52.508;13.454;2022-12-13T09:36:10;19.13;;;11.00;;
6537;SDS011;3302;52.508;13.454;2022-12-13T09:38:38;16.20;;;11.20;;
6537;SDS011;3302;52.508;13.454;2022-12-13T09:43:54;15.20;;;10.17;;
6537;SDS011;3302;52.508;13.454;2022-12-13T09:48:51;15.03;;;10.10;;
6537;SDS011;3302;52.508;13.454;2022-12-13T09:51:18;15.93;;;10.23;;
6537;SDS011;3302;52.508;13.454;2022-12-13T09:53:45;15.27;;;10.40;;
6537;SDS011;3302;52.508;13.454;2022-12-13T09:56:14;17.87;;;10.97;;
6537;SDS011;3302;52.508;13.454;2022-12-13T09:58:44;17.50;;;11.67;;
6537;SDS011;3302;52.508;13.454;2022-12-13T10:01:13;20.27;;;11.63;;
6537;SDS011;3302;52.508;13.454;2022-12-13T10:03:40;19.60;;;11.87;;
6537;SDS011;3302;52.508;13.454;2022-12-13T10:06:20;17.83;;;11.83;;
6537;SDS011;3302;52.508;13.454;2022-12-13T10:08:56;15.63;;;11.03;;
6537;SDS011;3302;52.508;13.454;2022-12-13T10:11:24;16.67;;;11.57;;
6537;SDS011;3302;52.508;13.454;2022-12-13T10:16:54;17.83;;;10.80;;
6537;SDS011;3302;52.508;13.454;2022-12-13T10:19:27;16.07;;;10.63;;
6537;SDS011;3302;52.508;13.454;2022-12-13T10:21:58;16.37;;;10.50;;
6537;SDS011;3302;52.508;13.454;2022-12-13T10:24:27;15.10;;;10.37;;
6537;SDS011;3302;52.508;13.454;2022-12-13T10:26:55;15.77;;;11.33;;
6537;SDS011;3302;52.508;13.454;2022-12-13T10:32:31;15.67;;;11.03;;
6537;SDS011;3302;52.508;13.454;2022-12-13T10:35:25;16.23;;;10.10;;
6537;SDS011;3302;52.508;13.454;2022-12-13T10:37:54;15.73;;;10.17;;
6537;SDS011;3302;52.508;13.454;2022-12-13T10:40:25;15.90;;;11.17;;
6537;SDS011;3302;52.508;13.454;2022-12-13T10:45:41;15.87;;;9.93;;
6537;SDS011;3302;52.508;13.454;2022-12-13T10:48:18;14.93;;;10.07;;
6537;SDS011;3302;52.508;13.454;2022-12-13T10:50:54;14.60;;;10.03;;
6537;SDS011;3302;52.508;13.454;2022-12-13T10:54:00;16.70;;;11.00;;
6537;SDS011;3302;52.508;13.454;2022-12-13T10:56:33;15.67;;;11.00;;
6537;SDS011;3302;52.508;13.454;2022-12-13T10:59:09;13.97;;;9.83;;
6537;SDS011;3302;52.508;13.454;2022-12-13T11:01:56;14.93;;;9.73;;
6537;SDS011;3302;52.508;13.454;2022-12-13T11:06:51;16.70;;;10.20;;
6537;SDS011;3302;52.508;13.454;2022-12-13T11:09:23;16.20;;;9.90;;
6537;SDS011;3302;52.508;13.454;2022-12-13T11:11:55;12.00;;;8.90;;
6537;SDS011;3302;52.508;13.454;2022-12-13T11:14:27;12.50;;;8.40;;
6537;SDS011;3302;52.508;13.454;2022-12-13T11:16:57;13.07;;;9.17;;
6537;SDS011;3302;52.508;13.454;2022-12-13T11:19:35;13.47;;;8.83;;
6537;SDS011;3302;52.508;13.454;2022-12-13T11:22:09;12.80;;;8.40;;
6537;SDS011;3302;52.508;13.454;2022-12-13T11:24:49;12.37;;;8.53;;
6537;SDS011;3302;52.508;13.454;2022-12-13T11:30:02;12.70;;;8.60;;
6537;SDS011;3302;52.508;13.454;2022-12-13T11:35:49;14.30;;;9.53;;
6537;SDS011;3302;52.508;13.454;2022-12-13T11:41:31;14.97;;;9.27;;
6537;SDS011;3302;52.508;13.454;2022-12-13T11:44:35;13.93;;;8.87;;
6537;SDS011;3302;52.508;13.454;2022-12-13T11:48:04;13.97;;;9.03;;
6537;SDS011;3302;52.508;13.454;2022-12-13T11:50:19;14.17;;;9.47;;
6537;SDS011;3302;52.508;13.454;2022-12-13T11:52:54;13.20;;;9.10;;
6537;SDS011;3302;52.508;13.454;2022-12-13T11:55:27;13.20;;;9.03;;
6537;SDS011;3302;52.508;13.454;2022-12-13T12:00:48;14.53;;;10.10;;
6537;SDS011;3302;52.508;13.454;2022-12-13T12:06:08;12.77;;;9.17;;
6537;SDS011;3302;52.508;13.454;2022-12-13T12:09:01;13.37;;;9.23;;
6537;SDS011;3302;52.508;13.454;2022-12-13T12:11:34;14.53;;;8.60;;
6537;SDS011;3302;52.508;13.454;2022-12-13T12:16:42;12.93;;;8.87;;
6537;SDS011;3302;52.508;13.454;2022-12-13T12:19:20;12.50;;;8.60;;
6537;SDS011;3302;52.508;13.454;2022-12-13T12:21:51;13.43;;;8.60;;
6537;SDS011;3302;52.508;13.454;2022-12-13T12:29:54;13.47;;;9.07;;
6537;SDS011;3302;52.508;13.454;2022-12-13T12:43:54;14.63;;;9.37;;
6537;SDS011;3302;52.508;13.454;2022-12-13T12:47:22;12.20;;;8.40;;
6537;SDS011;3302;52.508;13.454;2022-12-13T12:49:32;13.07;;;8.23;;
6537;SDS011;3302;52.508;13.454;2022-12-13T13:00:50;11.73;;;8.60;;
6537;SDS011;3302;52.508;13.454;2022-12-13T13:03:24;15.17;;;9.10;;
6537;SDS011;3302;52.508;13.454;2022-12-13T13:08:24;18.33;;;8.77;;
6537;SDS011;3302;52.508;13.454;2022-12-13T13:10:58;16.90;;;9.80;;
6537;SDS011;3302;52.508;13.454;2022-12-13T13:16:28;13.40;;;7.93;;
6537;SDS011;3302;52.508;13.454;2022-12-13T13:18:57;13.23;;;8.07;;
6537;SDS011;3302;52.508;13.454;2022-12-13T13:26:37;16.87;;;9.27;;
6537;SDS011;3302;52.508;13.454;2022-12-13T13:34:29;14.13;;;8.73;;
6537;SDS011;3302;52.508;13.454;2022-12-13T13:36:56;16.83;;;8.20;;
6537;SDS011;3302;52.508;13.454;2022-12-13T13:41:55;12.80;;;8.30;;
6537;SDS011;3302;52.508;13.454;2022-12-13T13:47:11;11.17;;;7.97;;
6537;SDS011;3302;52.508;13.454;2022-12-13T13:52:25;9.87;;;7.50;;
6537;SDS011;3302;52.508;13.454;2022-12-13T14:26:49;14.00;;;7.93;;
6537;SDS011;3302;52.508;13.454;2022-12-13T14:29:29;13.63;;;7.73;;
6537;SDS011;3302;52.508;13.454;2022-12-13T14:31:57;12.23;;;8.40;;
6537;SDS011;3302;52.508;13.454;2022-12-13T14:34:30;10.90;;;7.70;;
6537;SDS011;3302;52.508;13.454;2022-12-13T14:39:25;10.87;;;7.93;;
6537;SDS011;3302;52.508;13.454;2022-12-13T14:41:54;12.17;;;7.73;;
6537;SDS011;3302;52.508;13.454;2022-12-13T14:44:29;13.70;;;8.10;;
6537;SDS011;3302;52.508;13.454;2022-12-13T14:49:40;12.03;;;8.47;;
6537;SDS011;3302;52.508;13.454;2022-12-13T14:52:13;14.07;;;8.90;;
6537;SDS011;3302;52.508;13.454;2022-12-13T14:54:46;11.57;;;8.33;;
6537;SDS011;3302;52.508;13.454;2022-12-13T14:57:17;14.67;;;9.13;;
6537;SDS011;3302;52.508;13.454;2022-12-13T14:59:49;15.63;;;9.07;;
6537;SDS011;3302;52.508;13.454;2022-12-13T15:02:18;15.57;;;9.50;;
6537;SDS011;3302;52.508;13.454;2022-12-13T15:04:46;12.80;;;8.67;;
6537;SDS011;3302;52.508;13.454;2022-12-13T15:09:41;14.07;;;8.63;;
6537;SDS011;3302;52.508;13.454;2022-12-13T15:12:10;14.77;;;8.77;;
6537;SDS011;3302;52.508;13.454;2022-12-13T15:14:42;14.80;;;8.77;;
6537;SDS011;3302;52.508;13.454;2022-12-13T15:17:24;15.43;;;9.80;;
6537;SDS011;3302;52.508;13.454;2022-12-13T15:19:52;13.27;;;8.77;;
6537;SDS011;3302;52.508;13.454;2022-12-13T15:22:18;14.10;;;8.80;;
6537;SDS011;3302;52.508;13.454;2022-12-13T15:24:44;12.70;;;9.07;;
6537;SDS011;3302;52.508;13.454;2022-12-13T15:27:13;17.43;;;9.63;;
6537;SDS011;3302;52.508;13.454;2022-12-13T15:29:40;14.80;;;9.50;;
6537;SDS011;3302;52.508;13.454;2022-12-13T15:32:11;13.87;;;9.07;;
6537;SDS011;3302;52.508;13.454;2022-12-13T15:34:40;14.47;;;10.20;;
6537;SDS011;3302;52.508;13.454;2022-12-13T15:39:37;28.00;;;17.13;;
6537;SDS011;3302;52.508;13.454;2022-12-13T15:44:59;22.67;;;15.80;;
6537;SDS011;3302;52.508;13.454;2022-12-13T15:47:27;19.03;;;12.47;;
6537;SDS011;3302;52.508;13.454;2022-12-13T15:50:00;17.93;;;11.83;;
6537;SDS011;3302;52.508;13.454;2022-12-13T15:52:30;16.63;;;10.37;;
6537;SDS011;3302;52.508;13.454;2022-12-13T15:55:00;16.47;;;11.27;;
6537;SDS011;3302;52.508;13.454;2022-12-13T15:57:30;15.93;;;9.73;;
6537;SDS011;3302;52.508;13.454;2022-12-13T16:02:50;19.00;;;12.57;;
6537;SDS011;3302;52.508;13.454;2022-12-13T16:05:29;16.20;;;11.83;;
6537;SDS011;3302;52.508;13.454;2022-12-13T16:08:01;18.33;;;12.67;;
6537;SDS011;3302;52.508;13.454;2022-12-13T16:10:28;23.93;;;14.40;;
6537;SDS011;3302;52.508;13.454;2022-12-13T16:12:59;19.00;;;13.63;;
6537;SDS011;3302;52.508;13.454;2022-12-13T16:15:28;16.00;;;11.50;;
6537;SDS011;3302;52.508;13.454;2022-12-13T16:18:06;18.50;;;11.33;;
6537;SDS011;3302;52.508;13.454;2022-12-13T16:20:38;14.83;;;10.63;;
6537;SDS011;3302;52.508;13.454;2022-12-13T16:23:04;16.40;;;10.03;;
6537;SDS011;3302;52.508;13.454;2022-12-13T16:25:30;13.40;;;9.40;;
6537;SDS011;3302;52.508;13.454;2022-12-13T16:27:56;14.80;;;10.20;;
6537;SDS011;3302;52.508;13.454;2022-12-13T16:30:23;16.03;;;10.27;;
6537;SDS011;3302;52.508;13.454;2022-12-13T16:32:51;16.50;;;11.37;;
6537;SDS011;3302;52.508;13.454;2022-12-13T16:35:17;22.93;;;12.63;;
6537;SDS011;3302;52.508;13.454;2022-12-13T16:37:44;16.97;;;11.17;;
6537;SDS011;3302;52.508;13.454;2022-12-13T16:40:31;18.23;;;11.27;;
6537;SDS011;3302;52.508;13.454;2022-12-13T16:43:01;15.83;;;10.50;;
6537;SDS011;3302;52.508;13.454;2022-12-13T16:45:29;18.17;;;12.20;;
6537;SDS011;3302;52.508;13.454;2022-12-13T16:48:04;22.03;;;14.77;;
6537;SDS011;3302;52.508;13.454;2022-12-13T16:50:31;17.67;;;11.70;;
6537;SDS011;3302;52.508;13.454;2022-12-13T16:52:57;18.30;;;12.20;;
6537;SDS011;3302;52.508;13.454;2022-12-13T16:55:23;22.73;;;15.37;;
6537;SDS011;3302;52.508;13.454;2022-12-13T16:57:56;31.23;;;19.77;;
6537;SDS011;3302;52.508;13.454;2022-12-13T17:00:29;21.27;;;13.57;;
6537;SDS011;3302;52.508;13.454;2022-12-13T17:02:55;17.90;;;11.70;;
6537;SDS011;3302;52.508;13.454;2022-12-13T17:05:23;18.13;;;12.80;;
6537;SDS011;3302;52.508;13.454;2022-12-13T17:07:49;17.70;;;11.60;;
6537;SDS011;3302;52.508;13.454;2022-12-13T17:10:16;17.40;;;12.30;;
6537;SDS011;3302;52.508;13.454;2022-12-13T17:12:42;18.80;;;12.10;;
6537;SDS011;3302;52.508;13.454;2022-12-13T17:15:09;19.53;;;12.77;;
6537;SDS011;3302;52.508;13.454;2022-12-13T17:17:37;17.60;;;11.80;;
6537;SDS011;3302;52.508;13.454;2022-12-13T17:20:07;17.40;;;11.93;;
6537;SDS011;3302;52.508;13.454;2022-12-13T17:22:35;17.33;;;11.80;;
6537;SDS011;3302;52.508;13.454;2022-12-13T17:25:02;15.60;;;11.20;;
6537;SDS011;3302;52.508;13.454;2022-12-13T17:27:29;16.53;;;11.30;;
6537;SDS011;3302;52.508;13.454;2022-12-13T17:29:55;16.27;;;10.90;;
6537;SDS011;3302;52.508;13.454;2022-12-13T17:32:21;15.33;;;10.53;;